createdAt,value
2019-02-15T00:02:14.314Z,73.97
2019-02-15T00:05:08.916Z,79.20
2019-02-15T00:08:03.786Z,81.15
2019-02-15T00:10:58.477Z,77.55
2019-02-15T00:13:53.298Z,74.90
2019-02-15T00:16:48.123Z,74.37
2019-02-15T00:19:46.465Z,71.72
2019-02-15T00:22:41.051Z,75.75
2019-02-15T00:25:35.970Z,83.22
2019-02-15T00:28:30.737Z,89.28
2019-02-15T00:31:25.298Z,82.92
2019-02-15T00:34:19.516Z,79.07
2019-02-15T00:37:14.014Z,76.28
2019-02-15T00:40:08.980Z,75.80
2019-02-15T00:43:04.067Z,77.22
2019-02-15T00:46:17.733Z,75.57
2019-02-15T00:49:16.220Z,73.87
2019-02-15T00:52:27.012Z,75.10
2019-02-15T00:55:45.793Z,73.35
2019-02-15T00:58:58.029Z,71.57
2019-02-15T01:02:09.048Z,73.45
2019-02-15T01:05:23.947Z,76.77
2019-02-15T01:08:26.110Z,73.35
2019-02-15T01:11:41.507Z,73.90
2019-02-15T01:14:36.648Z,74.55
2019-02-15T01:17:31.475Z,76.25
2019-02-15T01:20:26.179Z,75.12
2019-02-15T01:23:20.787Z,74.87
2019-02-15T01:26:20.769Z,77.15
2019-02-15T01:29:48.175Z,78.70
2019-02-15T01:32:57.309Z,82.55
2019-02-15T01:36:10.200Z,84.60
2019-02-15T01:39:21.492Z,86.67
2019-02-15T01:42:45.750Z,86.65
2019-02-15T01:45:46.409Z,90.72
2019-02-15T01:48:40.796Z,91.30
2019-02-15T01:51:35.298Z,100.20
2019-02-15T01:54:29.881Z,100.25
2019-02-15T01:57:25.366Z,89.65
2019-02-15T02:00:21.507Z,89.67
2019-02-15T02:03:16.244Z,83.55
2019-02-15T02:06:11.730Z,82.88
2019-02-15T02:09:07.275Z,77.78
2019-02-15T02:12:02.135Z,77.03
2019-02-15T02:14:57.140Z,82.02
2019-02-15T02:17:52.438Z,80.07
2019-02-15T02:20:46.901Z,76.62
2019-02-15T02:23:41.697Z,77.12
2019-02-15T02:26:36.081Z,74.92
2019-02-15T02:29:30.892Z,75.67
2019-02-15T02:32:25.925Z,75.40
2019-02-15T02:35:20.658Z,74.45
2019-02-15T02:38:15.884Z,75.42
2019-02-15T02:41:10.471Z,73.20
2019-02-15T02:44:05.216Z,75.67
2019-02-15T02:47:03.735Z,75.40
2019-02-15T02:50:02.811Z,74.58
2019-02-15T02:53:07.142Z,72.08
2019-02-15T02:56:25.285Z,68.78
2019-02-15T02:59:22.705Z,68.83
2019-02-15T03:02:31.246Z,67.70
2019-02-15T03:05:30.737Z,67.55
2019-02-15T03:08:27.166Z,65.75
2019-02-15T03:11:25.058Z,64.32
2019-02-15T03:14:21.079Z,60.63
2019-02-15T03:17:18.830Z,61.35
2019-02-15T03:20:30.134Z,63.40
2019-02-15T03:23:36.840Z,61.50
2019-02-15T03:26:45.935Z,58.80
2019-02-15T03:29:43.415Z,56.73
2019-02-15T03:32:42.649Z,55.35
2019-02-15T03:35:44.101Z,55.08
2019-02-15T03:39:00.649Z,53.78
2019-02-15T03:42:00.539Z,52.75
2019-02-15T03:44:57.710Z,51.85
2019-02-15T03:48:06.012Z,52.53
2019-02-15T03:51:07.146Z,52.78
2019-02-15T03:54:06.960Z,49.67
2019-02-15T03:57:05.965Z,49.95
2019-02-15T04:00:02.846Z,51.70
2019-02-15T04:03:09.589Z,50.80
2019-02-15T04:06:07.499Z,47.88
2019-02-15T04:09:09.270Z,46.75
2019-02-15T04:12:09.203Z,47.20
2019-02-15T04:15:13.884Z,45.67
2019-02-15T04:18:10.464Z,46.92
2019-02-15T04:25:10.990Z,42.70
2019-02-15T04:28:07.075Z,43.42
2019-02-15T04:31:14.544Z,44.18
2019-02-15T04:34:20.877Z,44.33
2019-02-15T04:37:27.101Z,46.23
2019-02-15T04:40:45.928Z,46.45
2019-02-15T04:43:42.211Z,44.13
2019-02-15T04:46:39.838Z,45.35
2019-02-15T04:49:36.638Z,43.28
2019-02-15T04:52:36.045Z,47.67
2019-02-15T04:55:31.057Z,41.25
2019-02-15T04:58:27.972Z,45.75
2019-02-15T05:01:24.474Z,48.33
2019-02-15T05:04:29.731Z,42.55
2019-02-15T05:07:27.263Z,44.53
2019-02-15T05:10:23.091Z,44.33
2019-02-15T05:13:23.755Z,43.73
2019-02-15T05:16:24.638Z,44.85
2019-02-15T05:19:20.333Z,45.38
2019-02-15T05:22:16.441Z,43.10
2019-02-15T05:25:15.077Z,42.17
2019-02-15T05:28:11.531Z,41.73
2019-02-15T05:31:08.754Z,42.80
2019-02-15T05:34:05.913Z,43.90
2019-02-15T05:37:19.127Z,39.48
2019-02-15T05:40:14.786Z,40.30
2019-02-15T05:43:10.277Z,37.25
2019-02-15T05:46:05.663Z,35.43
2019-02-15T05:49:00.908Z,36.58
2019-02-15T05:52:09.524Z,36.93
2019-02-15T05:55:02.954Z,38.45
2019-02-15T05:57:57.989Z,38.53
2019-02-15T06:01:07.243Z,39.38
2019-02-15T06:04:08.058Z,40.78
2019-02-15T06:07:03.110Z,38.70
2019-02-15T06:09:59.084Z,36.77
2019-02-15T06:13:00.102Z,37.30
2019-02-15T06:15:59.649Z,37.75
2019-02-15T06:18:52.187Z,38.40
2019-02-15T06:21:49.727Z,38.45
2019-02-15T06:24:45.947Z,38.92
2019-02-15T06:27:41.472Z,41.80
2019-02-15T06:30:36.895Z,40.98
2019-02-15T06:33:32.193Z,42.75
2019-02-15T06:36:29.034Z,40.85
2019-02-15T06:39:28.279Z,39.88
2019-02-15T06:42:23.604Z,39.70
2019-02-15T06:45:24.937Z,38.13
2019-02-15T06:48:15.241Z,40.23
2019-02-15T06:51:11.317Z,39.75
2019-02-15T06:54:07.246Z,41.08
2019-02-15T06:57:03.014Z,41.13
2019-02-15T07:00:15.634Z,41.75
2019-02-15T07:03:36.993Z,39.85
2019-02-15T07:06:34.601Z,37.48
2019-02-15T07:09:30.310Z,38.50
2019-02-15T07:12:30.237Z,38.95
2019-02-15T07:15:33.501Z,38.33
2019-02-15T07:18:23.051Z,38.08
2019-02-15T07:21:19.776Z,38.73
2019-02-15T07:24:25.328Z,40.20
2019-02-15T07:28:05.194Z,40.08
2019-02-15T07:31:12.620Z,43.50
2019-02-15T07:34:11.226Z,47.13
2019-02-15T07:37:07.936Z,47.15
2019-02-15T07:40:02.983Z,44.00
2019-02-15T07:43:02.182Z,44.27
2019-02-15T07:45:58.334Z,44.25
2019-02-15T07:48:53.644Z,42.65
2019-02-15T07:51:49.108Z,40.25
2019-02-15T07:54:45.425Z,40.85
2019-02-15T07:57:41.173Z,40.95
2019-02-15T08:00:36.961Z,39.08
2019-02-15T08:03:32.566Z,39.98
2019-02-15T08:06:28.594Z,53.10
2019-02-15T08:09:23.860Z,59.48
2019-02-15T08:12:18.932Z,60.10
2019-02-15T08:15:14.751Z,59.40
2019-02-15T08:18:11.289Z,61.80
2019-02-15T08:21:07.687Z,59.93
2019-02-15T08:24:02.993Z,61.48
2019-02-15T08:26:59.497Z,60.55
2019-02-15T08:29:55.161Z,59.75
2019-02-15T08:32:52.347Z,58.75
2019-02-15T08:35:49.502Z,61.18
2019-02-15T08:38:48.248Z,61.18
2019-02-15T08:42:03.834Z,65.65
2019-02-15T08:45:20.237Z,70.70
2019-02-15T08:48:16.302Z,72.12
2019-02-15T08:51:11.527Z,69.47
2019-02-15T08:54:12.379Z,70.05
2019-02-15T08:57:07.613Z,66.85
2019-02-15T09:00:02.686Z,70.60
2019-02-15T09:02:57.559Z,68.22
2019-02-15T09:05:52.649Z,64.75
2019-02-15T09:08:47.443Z,67.05
2019-02-15T09:11:50.750Z,65.67
2019-02-15T09:14:48.061Z,63.83
2019-02-15T09:17:47.300Z,63.38
2019-02-15T09:20:42.371Z,60.50
2019-02-15T09:23:40.223Z,64.72
2019-02-15T09:26:35.603Z,66.10
2019-02-15T09:29:38.953Z,64.53
2019-02-15T09:32:34.411Z,64.47
2019-02-15T09:36:06.535Z,64.53
2019-02-15T09:39:02.328Z,63.33
2019-02-15T09:42:01.619Z,65.47
2019-02-15T09:44:57.019Z,62.88
2019-02-15T09:47:53.316Z,61.08
2019-02-15T09:50:52.633Z,63.42
2019-02-15T09:53:54.706Z,64.77
2019-02-15T09:56:51.161Z,63.83
2019-02-15T09:59:46.772Z,65.55
2019-02-15T10:02:43.756Z,61.88
2019-02-15T10:05:54.545Z,61.75
2019-02-15T10:08:50.031Z,61.10
2019-02-15T10:11:46.386Z,61.83
2019-02-15T10:14:42.210Z,58.83
2019-02-15T10:17:37.279Z,60.95
2019-02-15T10:20:40.625Z,58.33
2019-02-15T10:23:35.884Z,59.00
2019-02-15T10:26:32.764Z,57.78
2019-02-15T10:29:28.450Z,58.92
2019-02-15T10:32:25.745Z,55.43
2019-02-15T10:35:21.569Z,56.50
2019-02-15T10:38:24.987Z,56.77
2019-02-15T10:41:20.115Z,56.23
2019-02-15T10:44:16.129Z,56.37
2019-02-15T10:47:15.814Z,56.28
2019-02-15T10:50:16.316Z,58.08
2019-02-15T10:53:15.430Z,54.60
2019-02-15T10:56:11.450Z,56.05
2019-02-15T10:59:14.155Z,55.00
2019-02-15T11:02:09.696Z,54.63
2019-02-15T11:05:04.891Z,55.98
2019-02-15T11:08:00.101Z,56.13
2019-02-15T11:11:02.684Z,53.45
2019-02-15T11:13:58.917Z,53.45
2019-02-15T11:16:55.298Z,55.85
2019-02-15T11:19:52.799Z,54.73
2019-02-15T11:22:47.792Z,53.80
2019-02-15T11:25:43.076Z,53.80
2019-02-15T11:28:38.113Z,55.67
2019-02-15T11:31:33.280Z,54.88
2019-02-15T11:34:29.206Z,55.00
2019-02-15T11:37:27.417Z,52.93
2019-02-15T11:40:23.453Z,53.50
2019-02-15T11:43:19.574Z,50.48
2019-02-15T11:46:14.670Z,53.45
2019-02-15T11:49:21.465Z,51.98
2019-02-15T11:52:17.186Z,52.33
2019-02-15T11:55:14.201Z,51.15
2019-02-15T11:58:12.096Z,49.95
2019-02-15T12:01:07.999Z,51.70
2019-02-15T12:04:04.518Z,52.08
2019-02-15T12:07:00.757Z,55.75
2019-02-15T12:09:55.879Z,50.70
2019-02-15T12:12:51.118Z,50.95
2019-02-15T12:15:52.864Z,52.10
2019-02-15T12:18:49.860Z,49.70
2019-02-15T12:21:45.446Z,50.73
2019-02-15T12:24:43.155Z,49.75
2019-02-15T12:27:39.209Z,49.88
2019-02-15T12:30:34.414Z,50.85
2019-02-15T12:33:35.045Z,51.55
2019-02-15T12:36:32.389Z,49.08
2019-02-15T12:39:26.254Z,50.28
2019-02-15T12:42:20.967Z,48.78
2019-02-15T12:45:15.711Z,50.15
2019-02-15T12:48:11.890Z,49.50
2019-02-15T12:51:10.920Z,49.73
2019-02-15T12:54:06.291Z,50.43
2019-02-15T12:57:01.732Z,50.55
2019-02-15T12:59:56.526Z,48.55
2019-02-15T13:02:51.739Z,50.45
2019-02-15T13:05:47.980Z,48.98
2019-02-15T13:08:44.458Z,51.28
2019-02-15T13:11:39.480Z,53.80
2019-02-15T13:14:34.601Z,50.80
2019-02-15T13:17:33.760Z,51.53
2019-02-15T13:20:31.931Z,54.03
2019-02-15T13:23:27.166Z,52.35
2019-02-15T13:26:22.194Z,52.33
2019-02-15T13:29:17.803Z,52.93
2019-02-15T13:32:13.147Z,52.75
2019-02-15T13:35:07.977Z,53.90
2019-02-15T13:38:02.915Z,58.35
2019-02-15T13:41:01.065Z,57.80
2019-02-15T13:43:58.265Z,58.15
2019-02-15T13:46:52.407Z,59.45
2019-02-15T13:49:47.376Z,58.25
2019-02-15T13:52:42.679Z,61.00
2019-02-15T13:55:37.565Z,61.10
2019-02-15T13:58:32.633Z,67.60
2019-02-15T14:01:27.697Z,88.85
2019-02-15T14:04:22.593Z,95.47
2019-02-15T14:07:24.632Z,99.95
2019-02-15T14:10:19.395Z,88.72
2019-02-15T14:13:14.503Z,99.07
2019-02-15T14:16:09.454Z,89.10
2019-02-15T14:19:04.331Z,93.17
2019-02-15T14:21:59.150Z,98.67
2019-02-15T14:24:54.348Z,95.90
2019-02-15T14:27:49.279Z,97.00
2019-02-15T14:30:45.373Z,94.42
2019-02-15T14:33:41.122Z,93.67
2019-02-15T14:36:35.916Z,88.60
2019-02-15T14:39:30.789Z,77.58
2019-02-15T14:42:25.567Z,70.15
2019-02-15T14:45:20.672Z,68.30
2019-02-15T14:48:16.348Z,64.92
2019-02-15T14:51:13.398Z,64.22
2019-02-15T14:54:10.669Z,66.72
2019-02-15T14:57:05.716Z,60.58
2019-02-15T15:00:00.500Z,64.27
2019-02-15T15:02:55.946Z,57.70
2019-02-15T15:05:50.684Z,58.23
2019-02-15T15:08:45.914Z,60.50
2019-02-15T15:11:41.101Z,61.63
2019-02-15T15:14:36.508Z,61.37
2019-02-15T15:17:31.762Z,59.65
2019-02-15T15:20:26.687Z,62.85
2019-02-15T15:23:21.767Z,58.80
2019-02-15T15:26:17.065Z,58.00
2019-02-15T15:29:12.327Z,68.12
2019-02-15T15:32:07.266Z,58.10
2019-02-15T15:35:02.689Z,58.33
2019-02-15T15:37:58.578Z,55.67
2019-02-15T15:40:53.825Z,75.47
2019-02-15T15:43:50.548Z,80.35
2019-02-15T15:46:45.438Z,67.67
2019-02-15T15:49:40.460Z,66.07
2019-02-15T15:52:35.281Z,63.00
2019-02-15T15:55:30.036Z,65.40
2019-02-15T15:58:24.912Z,59.83
2019-02-15T16:01:20.092Z,44.58
2019-02-15T16:33:59.515Z,77.15
2019-02-15T16:36:54.730Z,80.97
2019-02-15T16:39:50.295Z,78.12
2019-02-15T16:42:45.037Z,81.57
2019-02-15T16:45:40.250Z,76.47
2019-02-15T16:48:41.894Z,76.57
2019-02-15T16:51:30.594Z,79.97
2019-02-15T16:54:26.868Z,75.52
2019-02-15T16:57:21.673Z,75.28
2019-02-15T17:00:17.003Z,77.00
2019-02-15T17:03:12.273Z,73.33
2019-02-15T17:06:08.783Z,70.40
2019-02-15T17:09:04.352Z,71.82
2019-02-15T17:11:59.089Z,66.12
2019-02-15T17:14:54.146Z,67.82
2019-02-15T17:17:50.541Z,66.65
2019-02-15T17:20:46.136Z,64.90
2019-02-15T17:23:41.413Z,66.87
2019-02-15T17:26:37.111Z,64.37
2019-02-15T17:29:32.368Z,62.08
2019-02-15T17:32:26.968Z,58.40
2019-02-15T17:35:22.130Z,57.50
2019-02-15T17:38:17.500Z,53.28
2019-02-15T17:41:12.864Z,55.43
2019-02-15T17:44:07.970Z,52.65
2019-02-15T17:47:02.590Z,54.20
2019-02-15T17:49:57.424Z,50.17
2019-02-15T17:52:52.522Z,47.95
2019-02-15T17:55:47.514Z,47.83
2019-02-15T17:58:43.406Z,47.05
2019-02-15T18:01:38.526Z,45.88
2019-02-15T18:04:33.565Z,46.00
2019-02-15T18:07:28.713Z,46.50
2019-02-15T18:10:23.850Z,45.10
2019-02-15T18:13:19.231Z,45.55
2019-02-15T18:16:14.187Z,47.05
2019-02-15T18:19:10.269Z,47.05
2019-02-15T18:22:04.992Z,45.43
2019-02-15T18:25:00.319Z,46.00
2019-02-15T18:27:55.608Z,46.75
2019-02-15T18:30:50.727Z,48.00
2019-02-15T18:33:45.655Z,48.33
2019-02-15T18:36:41.734Z,49.05
2019-02-15T18:39:37.476Z,49.90
2019-02-15T18:42:32.271Z,49.93
2019-02-15T18:45:27.404Z,50.95
2019-02-15T18:48:22.253Z,52.67
2019-02-15T18:51:17.611Z,53.60
2019-02-15T18:54:12.658Z,55.17
2019-02-15T18:57:07.488Z,54.95
2019-02-15T19:00:02.838Z,54.18
2019-02-15T19:02:58.502Z,53.50
2019-02-15T19:05:53.825Z,54.03
2019-02-15T19:08:48.826Z,50.23
2019-02-15T19:11:43.780Z,49.58
2019-02-15T19:14:39.123Z,48.95
2019-02-15T19:17:33.837Z,47.43
2019-02-15T19:20:28.868Z,46.77
2019-02-15T19:23:23.885Z,47.17
2019-02-15T19:26:18.669Z,43.35
2019-02-15T19:29:14.065Z,47.10
2019-02-15T19:32:09.052Z,46.33
2019-02-15T19:35:04.379Z,45.12
2019-02-15T19:37:58.793Z,47.38
2019-02-15T19:40:53.912Z,48.73
2019-02-15T19:43:48.573Z,51.48
2019-02-15T19:46:43.658Z,51.80
2019-02-15T19:49:39.169Z,50.12
2019-02-15T19:52:34.177Z,51.33
2019-02-15T19:55:29.095Z,50.83
2019-02-15T19:58:23.993Z,49.77
2019-02-15T20:01:18.829Z,50.28
2019-02-15T20:04:14.361Z,52.35
2019-02-15T20:07:09.360Z,52.75
2019-02-15T20:10:04.873Z,52.93
2019-02-15T20:13:00.861Z,51.18
2019-02-15T20:15:55.486Z,50.10
2019-02-15T20:18:51.028Z,49.05
2019-02-15T20:21:46.189Z,48.35
2019-02-15T20:24:41.424Z,47.27
2019-02-15T20:27:37.850Z,48.13
2019-02-15T20:30:32.913Z,44.98
2019-02-15T20:33:28.023Z,43.25
2019-02-15T20:36:23.162Z,43.90
2019-02-15T20:39:18.705Z,44.15
2019-02-15T20:42:14.088Z,41.60
2019-02-15T20:45:09.964Z,39.98
2019-02-15T20:48:11.216Z,39.58
2019-02-15T20:51:02.095Z,39.38
2019-02-15T20:53:57.245Z,38.15
2019-02-15T20:56:52.414Z,37.15
2019-02-15T20:59:47.215Z,36.60
2019-02-15T21:02:42.178Z,34.98
2019-02-15T21:05:37.628Z,36.60
2019-02-15T21:08:33.358Z,36.23
2019-02-15T21:11:29.355Z,35.68
2019-02-15T21:14:24.266Z,36.15
2019-02-15T21:17:19.197Z,36.45
2019-02-15T21:20:15.015Z,35.52
2019-02-15T21:23:09.486Z,36.65
2019-02-15T21:26:04.380Z,37.00
2019-02-15T21:28:59.731Z,38.85
2019-02-15T21:31:54.521Z,38.53
2019-02-15T21:34:49.446Z,39.78
2019-02-15T21:37:44.202Z,39.90
2019-02-15T21:40:38.890Z,39.15
2019-02-15T21:43:34.525Z,39.50
2019-02-15T21:46:29.116Z,38.75
2019-02-15T21:49:24.095Z,37.60
2019-02-15T21:52:19.387Z,37.38
2019-02-15T21:55:14.266Z,37.85
2019-02-15T21:58:09.134Z,38.17
2019-02-15T22:01:04.997Z,38.42
2019-02-15T22:04:00.125Z,38.85
2019-02-15T22:06:55.377Z,37.50
2019-02-15T22:09:50.223Z,41.80
2019-02-15T22:12:45.247Z,40.17
2019-02-15T22:15:40.177Z,39.67
2019-02-15T22:18:35.407Z,39.35
2019-02-15T22:21:30.539Z,38.10
2019-02-15T22:24:25.724Z,38.65
2019-02-15T22:27:20.258Z,40.65
2019-02-15T22:30:16.857Z,43.23
2019-02-15T22:33:11.823Z,42.03
2019-02-15T22:36:06.879Z,41.73
2019-02-15T22:39:01.860Z,41.35
2019-02-15T22:41:57.041Z,40.55
2019-02-15T22:44:51.989Z,39.60
2019-02-15T22:47:46.877Z,40.33
2019-02-15T22:50:41.796Z,40.33
2019-02-15T22:53:36.251Z,40.17
2019-02-15T22:56:31.062Z,40.95
2019-02-15T22:59:26.304Z,40.15
2019-02-15T23:02:21.854Z,40.03
2019-02-15T23:05:16.825Z,38.95
2019-02-15T23:08:11.830Z,40.33
2019-02-15T23:11:07.017Z,39.40
2019-02-15T23:14:02.818Z,39.63
2019-02-15T23:16:57.973Z,39.92
2019-02-15T23:19:52.891Z,38.80
2019-02-15T23:22:47.750Z,39.42
2019-02-15T23:25:42.755Z,39.95
2019-02-15T23:28:38.586Z,37.78
2019-02-15T23:31:33.861Z,38.05
2019-02-15T23:34:28.837Z,39.53
2019-02-15T23:37:23.839Z,40.08
2019-02-15T23:40:18.851Z,39.33
2019-02-15T23:43:13.900Z,40.90
2019-02-15T23:46:08.257Z,42.20
2019-02-15T23:49:03.542Z,43.35
2019-02-15T23:51:59.370Z,44.42
2019-02-15T23:54:54.786Z,42.75
2019-02-15T23:57:50.016Z,43.55
